LNS weather

Lancaster Airport
Lancaster, Pennsylvania, United States

Public forecast

Using degrees Fahrenheit for public forecast. Weather courtesy of forecast.io.

METAR (pilot weather report)

Retrieved 2019/08/26 06:53 UTC (31 minutes ago):

KLNS 260653Z AUTO 00000KT 10SM CLR 16/13 A3020 RMK AO2 SLP226 T01560128

TAF (pilot weather forecast)

Retrieved 2019/08/26 06:34 UTC (50 minutes ago):

TAF KLNS 260532Z 2606/2706 10006KT P6SM SCT250 FM261400 12007KT P6SM SCT040